Francisco, Indiana
Current Conditions -  °F | °C
As of 7:54 AM on Sunday 21 Dec 2014 (Local Time) from KEVV Reporting Station
Haze Haze  
Wind Chill: 27°   Ceiling: Unl
Heat Index: 27°   Visibility: 3mi
Dew Point: 24°   Wind: 3mph
Humidity: 89%   Direction: 90°E
Pressure: 30.29"   Gusts: NA
Location:  38.33°N, 87.45°W
Report Text: KEVV 211354Z 09003KT 3SM BR CLR M03/M04 A3029 RMK AO2 SLP261 T10281044
Loading
Personal Weather Stations






























Interactive Weather Map New forecast layout! Learn more

10-Day Weather Forecast

Advertisements
Track Severe Weather on mobile